createdAt,value
2022-12-27T00:00:43.777Z,12.02
2022-12-27T00:03:15.471Z,11.57
2022-12-27T00:05:48.361Z,11.44
2022-12-27T00:08:19.995Z,11.41
2022-12-27T00:10:51.610Z,11.34
2022-12-27T00:13:23.319Z,11.92
2022-12-27T00:15:54.913Z,12.06
2022-12-27T00:18:26.572Z,11.85
2022-12-27T00:20:59.151Z,12.07
2022-12-27T00:23:34.531Z,11.72
2022-12-27T00:26:18.806Z,11.53
2022-12-27T00:28:51.063Z,11.41
2022-12-27T00:31:24.795Z,11.72
2022-12-27T00:34:05.088Z,11.83
2022-12-27T00:36:36.711Z,11.51
2022-12-27T00:39:09.481Z,11.19
2022-12-27T00:41:41.066Z,10.86
2022-12-27T00:44:12.728Z,11.31
2022-12-27T00:46:44.365Z,11.24
2022-12-27T00:49:16.025Z,10.84
2022-12-27T00:51:47.782Z,10.27
2022-12-27T00:54:19.420Z,9.98
2022-12-27T00:56:50.962Z,10.27
2022-12-27T00:59:22.578Z,10.23
2022-12-27T01:01:54.375Z,10.52
2022-12-27T01:04:26.303Z,10.44
2022-12-27T01:06:57.872Z,10.40
2022-12-27T01:09:29.449Z,10.40
2022-12-27T01:12:01.007Z,10.42
2022-12-27T01:14:32.629Z,10.42
2022-12-27T01:17:04.242Z,10.58
2022-12-27T01:19:36.866Z,10.65
2022-12-27T01:22:08.535Z,10.62
2022-12-27T01:24:40.112Z,10.54
2022-12-27T01:27:11.686Z,10.36
2022-12-27T01:29:43.418Z,10.73
2022-12-27T01:32:15.234Z,10.66
2022-12-27T01:34:46.921Z,10.81
2022-12-27T01:37:18.520Z,10.36
2022-12-27T01:39:50.109Z,10.64
2022-12-27T01:42:21.768Z,10.43
2022-12-27T01:44:58.202Z,11.14
2022-12-27T01:47:29.748Z,10.95
2022-12-27T01:50:29.433Z,10.63
2022-12-27T01:53:13.872Z,10.97
2022-12-27T01:55:51.499Z,11.25
2022-12-27T01:58:29.237Z,10.52
2022-12-27T02:01:03.816Z,10.13
2022-12-27T02:03:41.632Z,10.25
2022-12-27T02:06:16.062Z,10.35
2022-12-27T02:09:01.861Z,10.22
2022-12-27T02:11:36.890Z,10.22
2022-12-27T02:14:10.107Z,9.85
2022-12-27T02:16:41.751Z,9.62
2022-12-27T02:19:33.074Z,9.51
2022-12-27T02:22:34.953Z,9.47
2022-12-27T02:25:31.077Z,9.64
2022-12-27T02:28:40.264Z,10.11
2022-12-27T02:31:21.234Z,10.07
2022-12-27T02:33:56.098Z,9.75
2022-12-27T02:36:33.417Z,10.29
2022-12-27T02:39:06.409Z,10.17
2022-12-27T02:41:39.441Z,10.06
2022-12-27T02:44:11.690Z,9.77
2022-12-27T02:46:44.857Z,9.78
2022-12-27T02:49:33.077Z,9.49
2022-12-27T02:52:17.773Z,9.51
2022-12-27T02:55:07.821Z,9.83
2022-12-27T02:57:45.275Z,10.12
2022-12-27T03:00:21.180Z,9.77
2022-12-27T03:03:23.858Z,9.57
2022-12-27T03:06:32.927Z,9.33
2022-12-27T03:09:10.252Z,9.48
2022-12-27T03:11:49.532Z,9.40
2022-12-27T03:14:39.944Z,10.00
2022-12-27T03:17:39.803Z,10.19
2022-12-27T03:20:18.050Z,10.51
2022-12-27T03:22:53.896Z,10.04
2022-12-27T03:25:29.492Z,10.41
2022-12-27T03:28:14.468Z,9.73
2022-12-27T03:31:00.251Z,9.71
2022-12-27T03:33:36.259Z,10.13
2022-12-27T03:36:17.126Z,10.57
2022-12-27T03:39:18.072Z,10.24
2022-12-27T03:41:58.173Z,10.37
2022-12-27T03:44:30.340Z,10.68
2022-12-27T03:47:36.661Z,10.85
2022-12-27T03:50:25.730Z,10.98
2022-12-27T03:53:10.769Z,10.91
2022-12-27T03:55:43.608Z,10.78
2022-12-27T03:58:15.617Z,10.33
2022-12-27T04:00:47.401Z,10.68
2022-12-27T04:03:19.108Z,10.71
2022-12-27T04:05:50.796Z,10.70
2022-12-27T04:08:22.430Z,10.79
2022-12-27T04:10:54.045Z,10.65
2022-12-27T04:13:25.723Z,10.52
2022-12-27T04:15:57.437Z,10.76
2022-12-27T04:18:31.895Z,10.37
2022-12-27T04:21:03.546Z,10.33
2022-12-27T04:23:35.216Z,10.36
2022-12-27T04:26:06.851Z,10.29
2022-12-27T04:28:38.557Z,10.00
2022-12-27T04:31:10.443Z,9.96
2022-12-27T04:33:42.118Z,10.02
2022-12-27T04:36:13.708Z,10.08
2022-12-27T04:38:45.416Z,10.05
2022-12-27T04:41:17.050Z,9.91
2022-12-27T04:43:48.644Z,9.67
2022-12-27T04:46:24.251Z,9.64
2022-12-27T04:48:57.300Z,9.62
2022-12-27T04:51:29.047Z,9.63
2022-12-27T04:54:00.701Z,9.50
2022-12-27T04:56:32.675Z,9.61
2022-12-27T04:59:04.459Z,9.31
2022-12-27T05:01:36.540Z,9.51
2022-12-27T05:04:08.337Z,9.51
2022-12-27T05:06:40.081Z,9.51
2022-12-27T05:09:12.151Z,9.66
2022-12-27T05:11:43.914Z,9.54
2022-12-27T05:14:15.783Z,9.74
2022-12-27T05:16:47.493Z,9.45
2022-12-27T05:19:19.101Z,9.27
2022-12-27T05:21:50.704Z,9.60
2022-12-27T05:24:22.306Z,9.48
2022-12-27T05:26:56.424Z,9.59
2022-12-27T05:29:27.991Z,9.59
2022-12-27T05:31:59.536Z,9.69
2022-12-27T05:34:31.089Z,9.63
2022-12-27T05:37:02.758Z,9.43
2022-12-27T05:39:34.500Z,9.40
2022-12-27T05:42:06.395Z,9.60
2022-12-27T05:44:38.043Z,9.48
2022-12-27T05:47:09.617Z,9.03
2022-12-27T05:49:41.268Z,9.37
2022-12-27T05:52:12.872Z,9.41
2022-12-27T05:54:44.622Z,9.49
2022-12-27T05:57:16.207Z,9.29
2022-12-27T05:59:47.831Z,9.61
2022-12-27T06:02:19.564Z,9.24
2022-12-27T06:04:51.364Z,9.54
2022-12-27T06:07:23.067Z,9.29
2022-12-27T06:09:54.634Z,9.38
2022-12-27T06:12:27.423Z,9.43
2022-12-27T06:14:58.999Z,9.43
2022-12-27T06:17:30.634Z,9.15
2022-12-27T06:20:02.227Z,8.97
2022-12-27T06:22:33.801Z,9.14
2022-12-27T06:25:08.720Z,9.30
2022-12-27T06:27:42.479Z,8.96
2022-12-27T06:30:14.152Z,8.90
2022-12-27T06:32:45.725Z,8.75
2022-12-27T06:35:17.287Z,8.95
2022-12-27T06:37:48.820Z,8.79
2022-12-27T06:40:20.391Z,8.60
2022-12-27T06:42:52.004Z,8.97
2022-12-27T06:45:23.615Z,8.76
2022-12-27T06:47:55.256Z,8.86
2022-12-27T06:50:26.880Z,8.74
2022-12-27T06:52:58.462Z,8.99
2022-12-27T06:55:30.064Z,9.08
2022-12-27T06:58:01.739Z,8.93
2022-12-27T07:00:33.317Z,9.04
2022-12-27T07:03:05.030Z,8.97
2022-12-27T07:05:38.152Z,9.11
2022-12-27T07:08:09.772Z,9.20
2022-12-27T07:10:41.433Z,9.13
2022-12-27T07:13:13.094Z,9.24
2022-12-27T07:15:44.657Z,9.27
2022-12-27T07:18:16.228Z,9.20
2022-12-27T07:20:48.989Z,9.18
2022-12-27T07:23:20.578Z,9.19
2022-12-27T07:25:52.179Z,9.19
2022-12-27T07:28:23.835Z,9.27
2022-12-27T07:30:55.688Z,9.34
2022-12-27T07:33:27.248Z,9.33
2022-12-27T07:36:03.653Z,9.27
2022-12-27T07:38:35.299Z,9.28
2022-12-27T07:41:06.867Z,9.34
2022-12-27T07:43:38.811Z,9.44
2022-12-27T07:46:17.455Z,9.83
2022-12-27T07:48:50.031Z,9.81
2022-12-27T07:51:22.166Z,9.89
2022-12-27T07:53:54.870Z,9.98
2022-12-27T07:56:28.545Z,9.87
2022-12-27T07:59:02.055Z,10.07
2022-12-27T08:01:35.764Z,10.09
2022-12-27T08:04:07.499Z,9.74
2022-12-27T08:06:39.582Z,9.79
2022-12-27T08:09:26.423Z,9.84
2022-12-27T08:11:58.142Z,11.68
2022-12-27T08:14:29.920Z,13.59
2022-12-27T08:17:17.684Z,12.83
2022-12-27T08:19:52.485Z,13.33
2022-12-27T08:22:24.148Z,13.23
2022-12-27T08:24:55.751Z,15.50
2022-12-27T08:27:27.371Z,16.79
2022-12-27T08:29:58.963Z,14.96
2022-12-27T08:32:30.591Z,15.54
2022-12-27T08:35:25.327Z,17.47
2022-12-27T08:37:53.968Z,17.94
2022-12-27T08:40:25.579Z,14.91
2022-12-27T08:42:57.267Z,14.66
2022-12-27T08:45:29.007Z,14.06
2022-12-27T08:48:03.637Z,13.91
2022-12-27T08:50:35.479Z,13.05
2022-12-27T08:53:07.309Z,13.96
2022-12-27T08:55:38.929Z,14.09
2022-12-27T08:58:16.064Z,14.27
2022-12-27T09:00:48.153Z,13.33
2022-12-27T09:03:21.828Z,14.10
2022-12-27T09:05:53.485Z,15.10
2022-12-27T09:08:26.409Z,16.73
2022-12-27T09:11:07.621Z,16.54
2022-12-27T09:13:40.838Z,19.48
2022-12-27T09:16:19.148Z,20.38
2022-12-27T09:18:54.344Z,21.99
2022-12-27T09:21:29.122Z,23.99
2022-12-27T09:24:00.735Z,22.61
2022-12-27T09:26:32.385Z,24.52
2022-12-27T09:29:04.665Z,24.76
2022-12-27T09:31:36.663Z,26.98
2022-12-27T09:34:10.573Z,24.97
2022-12-27T09:36:42.142Z,26.48
2022-12-27T09:39:13.927Z,25.19
2022-12-27T09:45:13.894Z,19.16
2022-12-27T09:47:45.523Z,17.46
2022-12-27T09:50:30.465Z,16.78
2022-12-27T09:53:13.359Z,20.11
2022-12-27T09:55:51.689Z,21.38
2022-12-27T09:58:32.500Z,20.03
2022-12-27T10:01:21.077Z,19.95
2022-12-27T10:03:53.375Z,19.06
2022-12-27T10:06:30.836Z,20.13
2022-12-27T10:09:05.346Z,20.35
2022-12-27T10:11:57.208Z,22.87
2022-12-27T10:14:48.365Z,23.65
2022-12-27T10:17:36.039Z,23.00
2022-12-27T10:20:22.798Z,24.08
2022-12-27T10:23:06.576Z,25.96
2022-12-27T10:25:40.900Z,26.29
2022-12-27T10:28:29.219Z,27.43
2022-12-27T10:31:03.831Z,22.44
2022-12-27T10:33:35.823Z,24.59
2022-12-27T10:36:12.638Z,26.13
2022-12-27T10:38:44.338Z,23.35
2022-12-27T10:41:19.103Z,22.96
2022-12-27T10:43:53.415Z,22.90
2022-12-27T10:46:32.667Z,24.39
2022-12-27T10:49:30.945Z,22.53
2022-12-27T10:52:17.440Z,22.33
2022-12-27T10:54:54.473Z,23.29
2022-12-27T10:57:34.345Z,24.08
2022-12-27T11:00:17.415Z,23.47
2022-12-27T11:02:55.520Z,24.87
2022-12-27T11:05:30.728Z,24.44
2022-12-27T11:08:20.439Z,24.59
2022-12-27T11:11:22.019Z,25.79
2022-12-27T11:14:11.214Z,27.13
2022-12-27T11:16:43.764Z,24.30
2022-12-27T11:19:27.613Z,23.26
2022-12-27T11:22:07.230Z,22.00
2022-12-27T11:24:47.093Z,21.16
2022-12-27T11:27:24.447Z,23.12
2022-12-27T11:29:59.068Z,22.87
2022-12-27T11:32:31.983Z,23.63
2022-12-27T11:35:03.692Z,22.45
2022-12-27T11:37:40.110Z,21.90
2022-12-27T11:40:28.222Z,20.54
2022-12-27T11:43:14.926Z,20.07
2022-12-27T11:45:51.372Z,21.13
2022-12-27T11:48:38.312Z,20.68
2022-12-27T11:51:28.217Z,21.79
2022-12-27T11:54:11.600Z,20.47
2022-12-27T11:56:50.653Z,20.96
2022-12-27T11:59:33.472Z,21.47
2022-12-27T12:02:27.237Z,21.79
2022-12-27T12:05:35.744Z,21.78
2022-12-27T12:08:38.138Z,23.23
2022-12-27T12:11:30.896Z,23.71
2022-12-27T12:14:32.932Z,24.72
2022-12-27T12:17:22.839Z,22.07
2022-12-27T12:20:05.611Z,21.70
2022-12-27T12:23:08.644Z,21.90
2022-12-27T12:25:46.279Z,19.72
2022-12-27T12:28:56.227Z,21.39
2022-12-27T12:31:24.271Z,19.21
2022-12-27T12:33:55.829Z,18.14
2022-12-27T12:36:50.695Z,17.02
2022-12-27T12:39:58.652Z,16.95
2022-12-27T12:43:01.396Z,16.65
2022-12-27T12:46:03.219Z,17.48
2022-12-27T12:49:07.890Z,15.90
2022-12-27T12:51:54.475Z,17.35
2022-12-27T12:54:31.836Z,16.27
2022-12-27T12:57:35.750Z,15.52
2022-12-27T13:00:46.507Z,15.47
2022-12-27T13:03:46.881Z,14.88
2022-12-27T13:06:56.412Z,13.82
2022-12-27T13:09:44.336Z,12.88
2022-12-27T13:12:38.079Z,12.26
2022-12-27T13:15:47.472Z,12.67
2022-12-27T13:18:55.956Z,12.26
2022-12-27T13:21:52.616Z,11.93
2022-12-27T13:24:34.394Z,11.81
2022-12-27T13:27:05.890Z,11.44
2022-12-27T13:29:53.575Z,11.28
2022-12-27T13:32:33.949Z,11.35
2022-12-27T13:35:26.967Z,12.10
2022-12-27T13:38:26.971Z,12.92
2022-12-27T13:41:22.512Z,12.69
2022-12-27T13:44:02.538Z,13.06
2022-12-27T13:46:52.633Z,12.99
2022-12-27T13:49:41.219Z,13.05
2022-12-27T13:52:21.918Z,12.91
2022-12-27T13:55:05.502Z,13.50
2022-12-27T13:57:58.723Z,13.57
2022-12-27T14:00:55.581Z,13.31
2022-12-27T14:04:28.849Z,13.65
2022-12-27T14:07:15.509Z,13.54
2022-12-27T14:10:37.632Z,13.93
2022-12-27T14:13:11.041Z,13.82
2022-12-27T14:15:42.636Z,13.74
2022-12-27T14:18:54.618Z,13.78
2022-12-27T14:21:47.892Z,13.69
2022-12-27T14:24:34.884Z,13.76
2022-12-27T14:27:40.424Z,13.42
2022-12-27T14:30:26.643Z,13.10
2022-12-27T14:33:24.344Z,13.38
2022-12-27T14:35:55.979Z,13.29
2022-12-27T14:39:01.587Z,12.99
2022-12-27T14:42:20.701Z,13.36
2022-12-27T14:45:12.188Z,13.63
2022-12-27T14:47:58.845Z,13.64
2022-12-27T14:50:42.268Z,13.43
2022-12-27T14:53:35.372Z,13.69
2022-12-27T14:56:25.826Z,12.59
2022-12-27T14:59:16.010Z,12.79
2022-12-27T15:02:08.476Z,12.41
2022-12-27T15:04:49.074Z,12.87
2022-12-27T15:07:51.687Z,13.37
2022-12-27T15:10:52.249Z,12.39
2022-12-27T15:13:30.233Z,12.49
2022-12-27T15:16:29.396Z,12.60
2022-12-27T15:19:36.233Z,12.81
2022-12-27T15:22:29.122Z,13.05
2022-12-27T15:25:19.149Z,12.93
2022-12-27T15:27:57.426Z,12.29
2022-12-27T15:30:47.331Z,12.01
2022-12-27T15:33:26.972Z,12.77
2022-12-27T15:36:10.775Z,12.01
2022-12-27T15:38:54.338Z,12.45
2022-12-27T15:41:52.592Z,12.57
2022-12-27T15:44:24.136Z,12.48
2022-12-27T15:47:18.670Z,12.42
2022-12-27T15:50:27.494Z,11.98
2022-12-27T15:53:33.298Z,11.89
2022-12-27T15:56:56.290Z,11.98
2022-12-27T15:59:51.262Z,12.13
2022-12-27T16:02:34.472Z,11.98
2022-12-27T16:05:08.921Z,11.70
2022-12-27T16:07:47.736Z,11.54
2022-12-27T16:10:31.434Z,11.63
2022-12-27T16:13:08.923Z,11.73
2022-12-27T16:15:43.663Z,11.69
2022-12-27T16:18:21.315Z,11.68
2022-12-27T16:21:31.533Z,11.80
2022-12-27T16:24:32.279Z,11.67
2022-12-27T16:27:05.118Z,11.28
2022-12-27T16:29:44.544Z,11.27
2022-12-27T16:32:26.562Z,11.58
2022-12-27T16:35:16.122Z,11.21
2022-12-27T16:37:55.879Z,11.06
2022-12-27T16:40:47.101Z,11.05
2022-12-27T16:43:18.688Z,10.79
2022-12-27T16:46:38.626Z,11.10
2022-12-27T16:49:44.306Z,11.07
2022-12-27T16:52:37.470Z,11.16
2022-12-27T16:55:38.550Z,11.19
2022-12-27T16:58:31.273Z,10.72
2022-12-27T17:01:18.353Z,10.73
2022-12-27T17:03:49.985Z,10.48
2022-12-27T17:06:36.756Z,10.36
2022-12-27T17:09:08.323Z,10.61
2022-12-27T17:11:59.814Z,10.52
2022-12-27T17:14:39.767Z,10.64
2022-12-27T17:17:20.241Z,10.79
2022-12-27T17:19:55.905Z,10.65
2022-12-27T17:22:34.224Z,10.68
2022-12-27T17:25:14.087Z,10.44
2022-12-27T17:28:14.383Z,10.37
2022-12-27T17:31:01.703Z,10.33
2022-12-27T17:33:39.300Z,10.13
2022-12-27T17:36:46.354Z,9.90
2022-12-27T17:39:41.559Z,10.02
2022-12-27T17:42:39.639Z,10.23
2022-12-27T17:45:27.956Z,10.32
2022-12-27T17:48:18.510Z,10.21
2022-12-27T17:50:51.310Z,10.10
2022-12-27T17:53:24.356Z,10.14
2022-12-27T17:56:20.130Z,10.21
2022-12-27T17:58:56.510Z,10.28
2022-12-27T18:01:35.974Z,10.36
2022-12-27T18:04:08.083Z,10.16
2022-12-27T18:06:39.937Z,10.20
2022-12-27T18:09:31.023Z,10.31
2022-12-27T18:12:12.082Z,9.92
2022-12-27T18:14:46.117Z,10.21
2022-12-27T18:17:34.697Z,10.08
2022-12-27T18:20:28.112Z,9.97
2022-12-27T18:23:02.513Z,10.03
2022-12-27T18:26:02.897Z,10.02
2022-12-27T18:28:34.742Z,9.77
2022-12-27T18:31:32.897Z,10.01
2022-12-27T18:34:14.064Z,9.98
2022-12-27T18:36:56.264Z,9.80
2022-12-27T18:39:40.180Z,9.96
2022-12-27T18:42:19.780Z,9.68
2022-12-27T18:45:02.090Z,9.82
2022-12-27T18:47:45.704Z,9.68
2022-12-27T18:50:46.334Z,9.67
2022-12-27T18:53:31.481Z,9.48
2022-12-27T18:56:30.794Z,9.35
2022-12-27T18:59:22.466Z,9.32
2022-12-27T19:01:57.559Z,8.90
2022-12-27T19:04:33.467Z,8.70
2022-12-27T19:07:14.457Z,8.56
2022-12-27T19:09:50.710Z,8.62
2022-12-27T19:12:30.826Z,8.46
2022-12-27T19:15:14.045Z,8.11
2022-12-27T19:17:50.177Z,8.20
2022-12-27T19:20:29.660Z,7.90
2022-12-27T19:23:23.957Z,7.88
2022-12-27T19:26:31.996Z,7.96
2022-12-27T19:29:14.177Z,8.05
2022-12-27T19:32:04.581Z,7.89
2022-12-27T19:34:46.062Z,7.98
2022-12-27T19:37:18.732Z,8.00
2022-12-27T19:39:50.513Z,8.04
2022-12-27T19:42:32.342Z,8.06
2022-12-27T19:45:04.149Z,8.07
2022-12-27T19:47:35.708Z,7.95
2022-12-27T19:50:08.085Z,8.02
2022-12-27T19:52:40.157Z,8.24
2022-12-27T19:55:20.648Z,8.04
2022-12-27T19:57:52.293Z,8.35
2022-12-27T20:00:24.042Z,8.29
2022-12-27T20:02:57.204Z,8.34
2022-12-27T20:06:14.530Z,8.19
2022-12-27T20:08:31.427Z,8.41
2022-12-27T20:11:05.701Z,8.49
2022-12-27T20:13:37.544Z,8.39
2022-12-27T20:16:12.583Z,8.45
2022-12-27T20:18:45.158Z,8.48
2022-12-27T20:21:19.927Z,8.37
2022-12-27T20:23:51.502Z,8.18
2022-12-27T20:26:25.403Z,8.35
2022-12-27T20:28:59.251Z,8.34
2022-12-27T20:31:31.199Z,8.50
2022-12-27T20:34:03.077Z,8.59
2022-12-27T20:36:34.650Z,8.38
2022-12-27T20:39:06.286Z,8.33
2022-12-27T20:41:37.930Z,8.08
2022-12-27T20:44:09.607Z,8.13
2022-12-27T20:46:41.405Z,8.08
2022-12-27T20:49:13.078Z,7.98
2022-12-27T20:51:44.797Z,8.16
2022-12-27T20:54:16.855Z,7.81
2022-12-27T20:56:48.417Z,8.03
2022-12-27T20:59:20.028Z,7.78
2022-12-27T21:01:56.827Z,7.46
2022-12-27T21:04:28.931Z,7.61
2022-12-27T21:07:00.494Z,8.55
2022-12-27T21:09:32.084Z,8.51
2022-12-27T21:12:03.699Z,8.09
2022-12-27T21:14:35.315Z,8.29
2022-12-27T21:17:06.951Z,8.33
2022-12-27T21:19:38.577Z,8.24
2022-12-27T21:22:10.214Z,8.08
2022-12-27T21:24:42.808Z,7.85
2022-12-27T21:27:14.405Z,8.11
2022-12-27T21:29:46.010Z,8.20
2022-12-27T21:32:17.595Z,8.19
2022-12-27T21:34:49.226Z,8.21
2022-12-27T21:37:20.944Z,8.44
2022-12-27T21:39:52.556Z,8.54
2022-12-27T21:42:24.142Z,9.01
2022-12-27T21:44:55.736Z,8.65
2022-12-27T21:47:27.365Z,8.22
2022-12-27T21:49:58.930Z,8.56
2022-12-27T21:52:30.460Z,8.78
2022-12-27T21:55:02.054Z,8.98
2022-12-27T21:57:33.639Z,8.76
2022-12-27T22:00:05.840Z,8.85
2022-12-27T22:02:37.500Z,8.66
2022-12-27T22:05:09.257Z,8.43
2022-12-27T22:07:40.868Z,8.49
2022-12-27T22:10:12.499Z,8.25
2022-12-27T22:12:44.132Z,8.02
2022-12-27T22:15:15.878Z,8.41
2022-12-27T22:17:47.512Z,8.36
2022-12-27T22:20:19.124Z,8.29
2022-12-27T22:22:50.693Z,8.41
2022-12-27T22:25:22.311Z,7.96
2022-12-27T22:27:53.870Z,8.15
2022-12-27T22:30:25.466Z,8.00
2022-12-27T22:32:57.081Z,7.64
2022-12-27T22:35:30.089Z,7.96
2022-12-27T22:38:01.659Z,7.88
2022-12-27T22:40:46.040Z,7.78
2022-12-27T22:43:18.667Z,7.78
2022-12-27T22:45:53.732Z,7.86
2022-12-27T22:48:25.667Z,7.91
2022-12-27T22:50:57.268Z,7.18
2022-12-27T22:53:29.352Z,7.18
2022-12-27T22:56:01.048Z,7.66
2022-12-27T22:58:32.746Z,7.84
2022-12-27T23:01:12.602Z,7.61
2022-12-27T23:03:44.574Z,7.76
2022-12-27T23:06:17.268Z,7.39
2022-12-27T23:08:49.796Z,7.29
2022-12-27T23:11:28.131Z,7.29
2022-12-27T23:14:06.319Z,7.29
2022-12-27T23:16:41.372Z,7.44
2022-12-27T23:19:15.402Z,7.47
2022-12-27T23:21:48.563Z,7.17
2022-12-27T23:24:20.367Z,7.30
2022-12-27T23:26:52.009Z,7.14
2022-12-27T23:29:23.622Z,6.81
2022-12-27T23:31:55.898Z,6.95
2022-12-27T23:34:29.134Z,6.87
2022-12-27T23:37:01.219Z,6.81
2022-12-27T23:39:32.902Z,6.74
2022-12-27T23:42:04.553Z,7.13
2022-12-27T23:44:36.166Z,6.93
2022-12-27T23:47:07.755Z,6.90
2022-12-27T23:49:39.553Z,6.96
2022-12-27T23:52:11.171Z,7.10
2022-12-27T23:54:42.772Z,6.87
2022-12-27T23:57:20.645Z,6.96
2022-12-27T23:59:54.460Z,6.90
